Time;durP1;ratioP1;P1;durP2;ratioP2;P2;SDS_P1;SDS_P2;PMS_P1;PMS_P2;Temp;Humidity;BMP_temperature;BMP_pressure;BME280_temperature;BME280_humidity;BME280_pressure;Samples;Min_cycle;Max_cycle;Signal;HPM_P1;HPM_P2
2022/09/24 00:06:26;;;;;;;9.20;8.33;;;13.20;99.90;;;;;;5055642;28;20486;-66
2022/09/24 00:09:41;;;;;;;9.47;8.60;;;13.20;99.90;;;;;;5056274;28;20796;-66
2022/09/24 00:12:42;;;;;;;8.83;8.03;;;13.10;99.90;;;;;;5054218;22;20502;-71
2022/09/24 00:15:54;;;;;;;9.03;8.23;;;13.10;99.90;;;;;;5033997;28;20478;-71
2022/09/24 00:19:03;;;;;;;9.17;8.37;;;13.10;99.90;;;;;;5037036;28;20964;-71
2022/09/24 00:22:20;;;;;;;8.70;8.00;;;13.10;99.90;;;;;;5038456;28;20474;-70
2022/09/24 00:31:56;;;;;;;8.13;7.53;;;13.10;99.90;;;;;;4984808;28;20511;-70
2022/09/24 00:34:58;;;;;;;8.67;7.87;;;13.00;99.90;;;;;;5047945;28;20453;-71
2022/09/24 00:38:19;;;;;;;7.63;7.03;;;13.00;99.90;;;;;;5035699;28;20467;-71
2022/09/24 00:41:39;;;;;;;8.93;8.13;;;13.00;99.90;;;;;;5040446;28;20491;-71
2022/09/24 00:45:12;;;;;;;9.10;8.23;;;13.00;99.90;;;;;;5005399;28;20538;-71
2022/09/24 00:48:03;;;;;;;9.17;8.37;;;12.90;99.90;;;;;;5039924;28;20508;-73
2022/09/24 00:51:45;;;;;;;7.60;7.00;;;12.90;99.90;;;;;;5050156;28;21078;-71
2022/09/24 00:54:43;;;;;;;8.83;8.03;;;12.90;99.90;;;;;;5045847;28;21013;-71
2022/09/24 00:57:48;;;;;;;9.00;8.20;;;12.90;99.90;;;;;;5033403;28;20467;-71
2022/09/24 01:01:05;;;;;;;8.00;7.20;;;12.90;99.90;;;;;;5037184;28;20477;-71
2022/09/24 01:07:28;;;;;;;9.03;8.13;;;12.90;99.90;;;;;;5040934;28;20557;-71
2022/09/24 01:14:42;;;;;;;8.30;7.60;;;12.90;99.90;;;;;;4972014;28;20485;-71
2022/09/24 01:17:55;;;;;;;9.53;8.63;;;12.90;99.90;;;;;;4956101;28;20481;-71
2022/09/24 01:21:00;;;;;;;8.50;7.80;;;12.90;99.90;;;;;;5039647;28;20455;-71
2022/09/24 01:24:41;;;;;;;9.00;8.20;;;12.90;99.90;;;;;;5041559;28;20462;-71
2022/09/24 01:27:56;;;;;;;9.00;8.20;;;12.80;99.90;;;;;;5037810;28;20874;-71
2022/09/24 01:31:03;;;;;;;9.07;8.27;;;12.80;99.90;;;;;;5034440;28;20495;-71
2022/09/24 01:34:22;;;;;;;9.80;8.80;;;12.80;99.90;;;;;;5041496;28;20923;-71
2022/09/24 01:38:11;;;;;;;8.03;7.23;;;12.80;99.90;;;;;;5040103;28;20493;-71
2022/09/24 01:41:17;;;;;;;8.70;7.90;;;12.80;99.90;;;;;;5052622;28;20470;-70
2022/09/24 01:44:22;;;;;;;8.53;7.83;;;12.80;99.90;;;;;;5041519;28;20553;-71
2022/09/24 01:47:59;;;;;;;8.07;7.37;;;12.80;99.90;;;;;;5036385;28;20475;-70
2022/09/24 01:51:03;;;;;;;9.10;8.27;;;12.80;99.90;;;;;;5039294;28;20463;-71
2022/09/24 01:54:09;;;;;;;8.83;8.13;;;12.70;99.90;;;;;;5044866;28;20459;-70
2022/09/24 01:57:15;;;;;;;9.07;8.27;;;12.80;99.90;;;;;;5040949;28;20514;-71
2022/09/24 02:00:19;;;;;;;8.90;8.20;;;12.80;99.90;;;;;;5040057;28;20486;-71
2022/09/24 02:03:34;;;;;;;9.23;8.53;;;12.70;99.90;;;;;;5039396;28;20454;-71
2022/09/24 02:06:41;;;;;;;8.73;7.97;;;12.80;99.90;;;;;;5045697;28;20875;-70
2022/09/24 02:09:55;;;;;;;8.87;8.07;;;12.80;99.90;;;;;;5051490;28;20451;-70
2022/09/24 02:13:04;;;;;;;9.90;9.10;;;12.80;99.90;;;;;;5047102;28;20479;-70
2022/09/24 02:16:29;;;;;;;8.93;8.13;;;12.80;99.90;;;;;;5041246;28;20470;-70
2022/09/24 02:19:32;;;;;;;8.87;8.00;;;12.70;99.90;;;;;;5042487;28;20828;-71
2022/09/24 02:22:52;;;;;;;9.87;8.97;;;12.80;99.90;;;;;;5045186;28;20481;-70
2022/09/24 02:25:50;;;;;;;9.37;8.60;;;12.70;99.90;;;;;;5043974;28;20481;-71
2022/09/24 02:29:06;;;;;;;9.33;8.47;;;12.70;99.90;;;;;;5036605;28;20452;-70
2022/09/24 02:32:14;;;;;;;9.00;8.10;;;12.70;99.90;;;;;;5050240;28;20482;-71
2022/09/24 02:35:52;;;;;;;9.40;8.60;;;12.70;99.90;;;;;;5037143;28;21026;-71
2022/09/24 02:38:59;;;;;;;8.63;7.97;;;12.70;99.90;;;;;;5035346;28;20453;-71
2022/09/24 02:42:06;;;;;;;8.80;8.00;;;12.70;99.90;;;;;;5038048;28;20471;-70
2022/09/24 02:45:01;;;;;;;9.07;8.23;;;12.70;99.90;;;;;;5034582;28;20450;-71
2022/09/24 02:48:17;;;;;;;;;;;;;;;;;;;;;
2022/09/24 02:51:26;;;;;;;10.60;8.30;;;12.70;99.90;;;;;;5035807;28;20486;-71
2022/09/24 02:54:27;;;;;;;;;;;;;;;;;;;;;
2022/09/24 02:57:29;;;;;;;8.40;7.80;;;12.70;99.90;;;;;;5031648;28;20497;-71
2022/09/24 03:00:26;;;;;;;9.97;9.17;;;12.60;99.90;;;;;;5035111;28;20451;-70
2022/09/24 03:03:34;;;;;;;9.00;8.30;;;12.60;99.90;;;;;;5035165;28;20478;-71
2022/09/24 03:06:46;;;;;;;9.40;8.60;;;12.60;99.90;;;;;;5029209;28;20474;-71
2022/09/24 03:09:46;;;;;;;9.43;8.63;;;12.60;99.90;;;;;;5037268;28;20459;-71
2022/09/24 03:12:50;;;;;;;9.90;9.00;;;12.60;99.90;;;;;;5031791;28;20569;-71
2022/09/24 03:16:13;;;;;;;9.50;8.70;;;12.60;99.90;;;;;;5031434;28;20566;-71
2022/09/24 03:19:33;;;;;;;10.20;9.23;;;12.60;99.90;;;;;;5041907;28;20494;-71
2022/09/24 03:22:46;;;;;;;9.87;9.07;;;12.50;99.90;;;;;;5048364;28;20566;-72
2022/09/24 03:25:59;;;;;;;9.90;9.07;;;12.50;99.90;;;;;;5034789;28;20475;-70
2022/09/24 03:29:03;;;;;;;10.57;9.77;;;12.60;99.90;;;;;;5033350;28;20439;-71
2022/09/24 03:32:37;;;;;;;10.50;9.53;;;12.60;99.90;;;;;;5041695;28;20562;-71
2022/09/24 03:36:12;;;;;;;10.03;9.23;;;12.50;99.90;;;;;;5045817;28;20471;-71
2022/09/24 03:39:05;;;;;;;10.30;9.50;;;12.50;99.90;;;;;;5050126;28;20810;-75
2022/09/24 03:41:57;;;;;;;9.50;8.70;;;12.50;99.90;;;;;;5054475;28;20463;-71
2022/09/24 03:44:55;;;;;;;10.40;9.50;;;12.50;99.90;;;;;;5047368;28;20494;-70
2022/09/24 03:48:07;;;;;;;11.07;10.07;;;12.50;99.90;;;;;;5052306;28;20450;-71
2022/09/24 03:51:26;;;;;;;10.53;9.53;;;12.50;99.90;;;;;;5057543;28;20458;-70
2022/09/24 03:54:32;;;;;;;10.73;9.83;;;12.50;99.90;;;;;;5050193;28;20474;-71
2022/09/24 04:00:33;;;;;;;9.80;9.00;;;12.50;99.90;;;;;;5049608;28;20775;-71
2022/09/24 04:03:42;;;;;;;10.90;10.00;;;12.50;99.90;;;;;;5036400;28;20447;-71
2022/09/24 04:06:51;;;;;;;10.57;9.60;;;12.50;99.90;;;;;;5037629;28;20471;-71
2022/09/24 04:10:36;;;;;;;11.07;10.17;;;12.50;99.90;;;;;;5032303;28;20964;-71
2022/09/24 04:17:10;;;;;;;11.70;10.70;;;12.40;99.90;;;;;;5039176;28;20479;-71
2022/09/24 04:20:33;;;;;;;11.57;10.53;;;12.50;99.90;;;;;;5038548;28;21038;-71
2022/09/24 04:23:40;;;;;;;13.67;12.37;;;12.50;99.90;;;;;;5038120;28;20442;-71
2022/09/24 04:26:38;;;;;;;13.40;12.20;;;12.50;99.90;;;;;;5028566;28;20862;-71
2022/09/24 04:29:47;;;;;;;13.03;11.93;;;12.50;99.90;;;;;;5043240;28;20476;-71
2022/09/24 04:32:55;;;;;;;13.70;12.50;;;12.50;99.90;;;;;;5041145;28;21231;-71
2022/09/24 04:35:57;;;;;;;13.83;12.53;;;12.50;99.90;;;;;;5036321;28;20474;-71
2022/09/24 04:39:05;;;;;;;15.00;13.60;;;12.50;99.90;;;;;;5038643;28;20451;-71
2022/09/24 04:42:12;;;;;;;14.43;13.03;;;12.50;99.90;;;;;;5044491;28;20979;-71
2022/09/24 04:45:23;;;;;;;14.60;13.20;;;12.50;99.90;;;;;;5045485;28;20481;-71
2022/09/24 04:48:17;;;;;;;15.20;13.70;;;12.50;99.90;;;;;;5052164;28;20504;-71
2022/09/24 04:51:34;;;;;;;16.87;15.20;;;12.50;99.90;;;;;;5042348;28;20481;-72
2022/09/24 04:54:40;;;;;;;16.37;14.93;;;12.50;99.90;;;;;;5032604;28;20479;-71
2022/09/24 04:57:53;;;;;;;17.03;15.50;;;12.50;99.90;;;;;;5036078;28;20631;-71
2022/09/24 05:00:50;;;;;;;17.43;15.73;;;12.50;99.90;;;;;;5039282;28;20446;-71
2022/09/24 05:04:16;;;;;;;16.50;15.00;;;12.50;99.90;;;;;;5040911;28;20481;-71
2022/09/24 05:07:35;;;;;;;20.47;18.57;;;12.50;99.90;;;;;;5047104;28;20946;-71
2022/09/24 05:10:38;;;;;;;20.60;18.47;;;12.50;99.90;;;;;;5041478;28;20470;-71
2022/09/24 05:13:37;;;;;;;21.13;19.10;;;12.60;99.90;;;;;;5042610;28;20731;-71
2022/09/24 05:16:42;;;;;;;20.93;18.93;;;12.60;99.90;;;;;;5046380;28;20470;-71
2022/09/24 05:19:48;;;;;;;19.67;17.67;;;12.60;99.90;;;;;;5049454;28;20443;-71
2022/09/24 05:22:57;;;;;;;19.40;17.47;;;12.60;99.90;;;;;;4963667;28;20547;-72
2022/09/24 05:29:07;;;;;;;20.53;18.63;;;12.70;99.90;;;;;;4963523;28;20446;-71
2022/09/24 05:32:14;;;;;;;20.37;18.33;;;12.60;99.90;;;;;;4951676;28;20485;-72
2022/09/24 05:35:20;;;;;;;21.27;19.17;;;12.70;99.90;;;;;;4964789;28;20492;-71
2022/09/24 05:38:24;;;;;;;20.47;18.60;;;12.70;99.90;;;;;;4962396;28;20485;-71
2022/09/24 05:41:47;;;;;;;21.23;19.33;;;12.70;99.90;;;;;;4964734;28;20478;-71
2022/09/24 05:45:00;;;;;;;21.30;19.23;;;12.70;99.90;;;;;;4960060;28;20461;-73
2022/09/24 05:48:04;;;;;;;19.97;18.10;;;12.70;99.90;;;;;;4958753;28;20501;-72
2022/09/24 05:51:08;;;;;;;20.30;18.43;;;12.70;99.90;;;;;;4958192;28;20490;-71
2022/09/24 05:54:20;;;;;;;20.27;18.40;;;12.70;99.90;;;;;;4948737;28;20841;-72
2022/09/24 06:00:37;;;;;;;19.83;18.03;;;12.70;99.90;;;;;;5008900;28;20456;-72
2022/09/24 06:03:28;;;;;;;18.47;16.77;;;12.80;99.90;;;;;;5019621;28;20543;-71
2022/09/24 06:06:16;;;;;;;20.03;18.00;;;12.70;99.90;;;;;;5021006;28;20478;-72
2022/09/24 06:09:07;;;;;;;18.30;16.60;;;12.70;99.90;;;;;;5036176;28;20772;-72
2022/09/24 06:12:01;;;;;;;19.30;17.60;;;12.80;99.90;;;;;;5059616;22;21077;-69
2022/09/24 06:14:49;;;;;;;20.67;18.60;;;12.70;99.90;;;;;;5057632;28;20825;-70
2022/09/24 06:17:38;;;;;;;19.70;17.80;;;12.80;99.90;;;;;;5057103;28;20904;-71
2022/09/24 06:20:31;;;;;;;19.07;17.27;;;12.80;99.90;;;;;;5061870;28;20477;-72
2022/09/24 06:23:21;;;;;;;20.60;18.67;;;12.80;99.90;;;;;;5056225;28;20478;-70
2022/09/24 06:26:13;;;;;;;20.53;18.63;;;12.70;99.90;;;;;;5054534;28;20483;-71
2022/09/24 06:29:03;;;;;;;20.40;18.50;;;12.70;99.90;;;;;;5037384;28;20454;-71
2022/09/24 06:31:52;;;;;;;19.83;18.03;;;12.70;99.90;;;;;;5039181;28;20468;-70
2022/09/24 06:34:42;;;;;;;20.93;18.90;;;12.70;99.90;;;;;;5045970;28;20852;-71
2022/09/24 06:37:36;;;;;;;21.60;19.70;;;12.80;99.90;;;;;;5043198;28;20496;-71
2022/09/24 06:40:27;;;;;;;22.43;20.23;;;12.80;99.90;;;;;;5042929;28;21079;-70
2022/09/24 06:43:24;;;;;;;23.70;21.47;;;12.80;99.90;;;;;;5036616;28;21668;-71
2022/09/24 06:46:21;;;;;;;23.50;21.30;;;12.80;99.90;;;;;;5033108;28;20474;-71
2022/09/24 06:49:28;;;;;;;21.87;19.73;;;12.80;99.90;;;;;;5037196;28;20446;-71
2022/09/24 06:52:25;;;;;;;24.33;21.90;;;12.80;99.90;;;;;;5029266;28;20479;-70
2022/09/24 06:55:18;;;;;;;23.67;21.37;;;12.70;99.90;;;;;;5028814;28;20494;-72
2022/09/24 06:58:12;;;;;;;24.67;22.20;;;12.70;99.90;;;;;;5028994;28;20604;-71
2022/09/24 07:01:03;;;;;;;25.27;22.70;;;12.70;99.90;;;;;;5029992;28;20963;-71
2022/09/24 07:03:56;;;;;;;25.13;22.67;;;12.70;99.90;;;;;;5033965;28;20447;-71
2022/09/24 07:09:51;;;;;;;23.87;21.47;;;12.70;99.90;;;;;;5034428;28;20461;-71
2022/09/24 07:12:41;;;;;;;22.83;20.60;;;12.70;99.90;;;;;;5032814;28;20986;-72
2022/09/24 07:15:29;;;;;;;25.77;23.00;;;12.80;99.90;;;;;;5028954;28;20521;-71
2022/09/24 07:18:19;;;;;;;23.23;21.00;;;12.80;99.90;;;;;;5034178;28;20496;-72
2022/09/24 07:21:07;;;;;;;23.20;20.80;;;12.70;99.90;;;;;;5030375;28;20601;-71
2022/09/24 07:23:55;;;;;;;23.67;21.23;;;12.70;99.90;;;;;;5033083;28;20456;-72
2022/09/24 07:26:45;;;;;;;23.27;20.90;;;12.80;99.90;;;;;;5020209;28;20565;-74
2022/09/24 07:29:35;;;;;;;22.30;19.87;;;12.80;99.90;;;;;;5023021;28;20517;-73
2022/09/24 07:32:24;;;;;;;22.30;20.00;;;12.80;99.90;;;;;;5007921;28;20566;-72
2022/09/24 07:35:19;;;;;;;21.87;19.67;;;12.80;99.90;;;;;;5012676;28;20490;-71
2022/09/24 07:38:11;;;;;;;22.40;19.93;;;12.80;99.90;;;;;;5022313;28;20467;-75
2022/09/24 07:41:00;;;;;;;21.63;19.33;;;12.80;99.90;;;;;;5035979;28;20446;-75
2022/09/24 07:43:48;;;;;;;19.93;18.03;;;12.80;99.90;;;;;;5026687;28;20454;-75
2022/09/24 07:46:37;;;;;;;20.47;18.37;;;12.80;99.90;;;;;;5019084;28;20539;-75
2022/09/24 07:49:28;;;;;;;20.13;18.13;;;12.80;99.90;;;;;;5019939;28;20451;-73
2022/09/24 07:52:17;;;;;;;18.63;16.70;;;12.80;99.90;;;;;;5021057;28;20467;-74
2022/09/24 07:55:06;;;;;;;21.10;17.47;;;12.80;99.90;;;;;;5033394;28;20505;-74
2022/09/24 07:57:56;;;;;;;19.17;17.30;;;12.80;99.90;;;;;;5014956;28;20465;-74
2022/09/24 08:00:44;;;;;;;19.20;17.30;;;12.80;99.90;;;;;;5021600;28;20548;-73
2022/09/24 08:03:33;;;;;;;18.77;16.97;;;12.80;99.90;;;;;;5028952;28;20438;-73
2022/09/24 08:06:22;;;;;;;19.23;17.40;;;12.80;99.90;;;;;;5032657;28;21040;-74
2022/09/24 08:09:15;;;;;;;20.80;18.70;;;12.80;99.90;;;;;;5037281;28;20973;-74
2022/09/24 08:12:03;;;;;;;19.10;17.20;;;12.80;99.90;;;;;;5036967;28;20494;-73
2022/09/24 08:14:52;;;;;;;19.83;18.03;;;12.80;99.90;;;;;;5037403;28;20475;-73
2022/09/24 08:17:40;;;;;;;21.03;19.10;;;12.80;99.90;;;;;;5038539;28;20470;-74
2022/09/24 08:20:32;;;;;;;21.07;18.90;;;12.80;99.90;;;;;;5037496;28;20466;-74
2022/09/24 08:23:20;;;;;;;22.17;20.03;;;12.80;99.90;;;;;;5031545;28;20522;-73
2022/09/24 08:26:12;;;;;;;23.07;20.70;;;12.80;99.90;;;;;;5037064;28;20515;-73
2022/09/24 08:29:03;;;;;;;21.40;19.30;;;12.80;99.90;;;;;;5035751;28;20459;-73
2022/09/24 08:31:51;;;;;;;21.47;19.20;;;12.80;99.90;;;;;;5036492;28;20478;-74
2022/09/24 08:34:40;;;;;;;22.00;19.80;;;12.80;99.90;;;;;;5037706;28;20542;-74
2022/09/24 08:37:30;;;;;;;21.63;19.40;;;12.80;99.90;;;;;;5073549;28;20503;-74
2022/09/24 08:40:23;;;;;;;20.87;18.77;;;12.90;99.90;;;;;;5079887;28;20466;-74
2022/09/24 08:43:23;;;;;;;20.93;18.40;;;12.90;99.90;;;;;;5077177;28;20484;-75
2022/09/24 08:49:31;;;;;;;20.70;18.67;;;12.90;99.90;;;;;;5075819;28;20449;-74
2022/09/24 08:52:29;;;;;;;21.70;19.40;;;13.00;99.90;;;;;;5079026;28;20495;-73
2022/09/24 08:55:23;;;;;;;19.47;17.40;;;13.00;99.90;;;;;;5078107;28;20560;-74
2022/09/24 08:58:25;;;;;;;21.13;18.90;;;13.00;99.90;;;;;;5069543;28;21753;-74
2022/09/24 09:01:24;;;;;;;21.40;19.20;;;13.00;99.90;;;;;;5074064;28;20441;-73
2022/09/24 09:04:25;;;;;;;21.37;19.23;;;13.00;99.90;;;;;;5080153;28;20453;-73
2022/09/24 09:07:21;;;;;;;24.23;20.97;;;13.00;99.90;;;;;;5080076;28;20492;-71
2022/09/24 09:10:13;;;;;;;22.03;19.93;;;13.00;99.90;;;;;;5082120;28;21904;-74
2022/09/24 09:13:12;;;;;;;20.93;18.93;;;13.00;99.90;;;;;;5075255;28;20850;-74
2022/09/24 09:16:05;;;;;;;22.43;20.03;;;13.00;99.90;;;;;;5075982;28;20480;-72
2022/09/24 09:18:58;;;;;;;20.57;18.47;;;13.00;99.90;;;;;;5074933;28;21063;-72
2022/09/24 09:21:51;;;;;;;21.53;19.17;;;13.00;99.90;;;;;;5073101;28;20475;-75
2022/09/24 09:24:45;;;;;;;22.50;20.17;;;13.10;99.90;;;;;;5071228;28;20449;-76
2022/09/24 09:27:33;;;;;;;20.23;18.13;;;13.10;99.90;;;;;;5077613;28;20476;-75
2022/09/24 09:30:25;;;;;;;21.53;19.37;;;13.10;99.90;;;;;;5075918;28;20461;-73
2022/09/24 09:33:29;;;;;;;21.83;19.63;;;13.10;99.90;;;;;;5075023;28;20881;-74
2022/09/24 09:36:34;;;;;;;22.80;20.47;;;13.20;99.90;;;;;;5074886;28;20498;-73
2022/09/24 09:39:36;;;;;;;22.10;19.70;;;13.20;99.90;;;;;;5072655;28;20448;-76
2022/09/24 09:42:29;;;;;;;21.37;19.27;;;13.10;99.90;;;;;;5079576;28;20471;-74
2022/09/24 09:45:28;;;;;;;22.93;20.57;;;13.20;99.90;;;;;;5079411;28;20468;-74
2022/09/24 09:48:18;;;;;;;23.17;20.80;;;13.10;99.90;;;;;;5078684;28;21067;-75
2022/09/24 09:51:13;;;;;;;22.47;20.17;;;13.10;99.90;;;;;;5083203;28;20460;-74
2022/09/24 09:54:07;;;;;;;21.60;19.40;;;13.10;99.90;;;;;;5078164;28;20453;-74
2022/09/24 09:56:55;;;;;;;21.23;19.13;;;13.10;99.90;;;;;;5079103;28;20582;-75
2022/09/24 09:59:47;;;;;;;24.03;21.63;;;13.10;99.90;;;;;;5079483;28;20987;-75
2022/09/24 10:02:40;;;;;;;22.97;20.53;;;13.10;99.90;;;;;;5072314;28;20472;-74
2022/09/24 10:05:30;;;;;;;23.63;21.23;;;13.20;99.90;;;;;;5078752;28;20999;-75
2022/09/24 10:08:21;;;;;;;24.87;22.27;;;13.20;99.90;;;;;;5080252;28;20463;-75
2022/09/24 10:11:15;;;;;;;23.10;20.80;;;13.20;99.90;;;;;;5082194;28;20579;-75
2022/09/24 10:14:04;;;;;;;25.30;22.67;;;13.30;99.90;;;;;;5076020;28;20457;-75
2022/09/24 10:16:54;;;;;;;26.13;22.50;;;13.30;99.90;;;;;;5077045;28;20480;-75
2022/09/24 10:19:46;;;;;;;24.93;22.43;;;13.30;99.90;;;;;;5080565;28;20459;-75
2022/09/24 10:22:36;;;;;;;24.63;21.83;;;13.30;99.90;;;;;;5082724;28;20481;-75
2022/09/24 10:25:28;;;;;;;25.30;22.60;;;13.30;99.90;;;;;;5075833;28;20870;-75
2022/09/24 10:31:29;;;;;;;25.60;22.90;;;13.30;99.90;;;;;;5081833;28;20481;-75
2022/09/24 10:34:25;;;;;;;24.67;22.17;;;13.40;99.90;;;;;;5079478;28;20465;-74
2022/09/24 10:37:17;;;;;;;26.60;23.90;;;13.40;99.90;;;;;;5083356;28;20473;-75
2022/09/24 10:40:14;;;;;;;27.20;24.37;;;13.40;99.90;;;;;;5077452;28;20453;-74
2022/09/24 10:43:05;;;;;;;26.67;23.90;;;13.40;99.90;;;;;;5072459;28;20853;-75
2022/09/24 10:46:11;;;;;;;27.53;24.70;;;13.40;99.90;;;;;;5076813;28;20473;-75
2022/09/24 10:49:05;;;;;;;26.53;23.73;;;13.40;99.90;;;;;;5075228;28;20505;-74
2022/09/24 10:52:03;;;;;;;27.17;24.27;;;13.40;99.90;;;;;;5077979;28;20565;-75
2022/09/24 10:55:02;;;;;;;27.13;24.17;;;13.40;99.90;;;;;;5075125;28;20542;-74
2022/09/24 10:58:01;;;;;;;29.07;25.93;;;13.40;99.90;;;;;;5077045;28;20459;-75
2022/09/24 11:01:02;;;;;;;27.50;24.60;;;13.40;99.90;;;;;;5079099;28;20511;-75
2022/09/24 11:03:59;;;;;;;28.97;25.60;;;13.40;99.90;;;;;;5074165;28;20453;-75
2022/09/24 11:07:08;;;;;;;29.50;26.50;;;13.40;99.90;;;;;;5074410;28;20465;-75
2022/09/24 11:10:04;;;;;;;31.40;26.30;;;13.40;99.90;;;;;;5076497;28;20582;-74
2022/09/24 11:13:05;;;;;;;27.70;24.80;;;13.50;99.90;;;;;;5082212;28;20487;-74
2022/09/24 11:16:15;;;;;;;28.87;25.77;;;13.50;99.90;;;;;;5071760;28;20523;-74
2022/09/24 11:19:15;;;;;;;30.47;27.20;;;13.50;99.90;;;;;;5076528;28;20613;-74
2022/09/24 11:22:11;;;;;;;30.17;26.97;;;13.50;99.90;;;;;;5082158;28;20657;-74
2022/09/24 11:25:23;;;;;;;29.73;26.07;;;13.50;99.90;;;;;;5076521;28;20452;-74
2022/09/24 11:28:28;;;;;;;29.07;25.97;;;13.50;99.90;;;;;;5079863;28;20459;-75
2022/09/24 11:31:26;;;;;;;29.87;26.70;;;13.50;99.90;;;;;;5077442;28;20456;-75
2022/09/24 11:34:30;;;;;;;30.60;27.30;;;13.50;99.90;;;;;;5079731;28;20999;-74
2022/09/24 11:37:28;;;;;;;30.57;27.27;;;13.50;99.90;;;;;;5082461;28;20488;-75
2022/09/24 11:40:39;;;;;;;32.10;28.40;;;13.50;99.90;;;;;;5076496;28;20445;-74
2022/09/24 11:43:49;;;;;;;28.80;25.80;;;13.50;99.90;;;;;;5080131;28;20486;-75
2022/09/24 11:46:53;;;;;;;30.20;27.00;;;13.60;99.90;;;;;;5080895;28;20464;-74
2022/09/24 11:49:51;;;;;;;29.43;26.40;;;13.50;99.90;;;;;;5077187;28;20793;-75
2022/09/24 11:52:45;;;;;;;33.70;28.33;;;13.50;99.90;;;;;;5081853;28;20484;-75
2022/09/24 11:55:40;;;;;;;30.90;27.70;;;13.50;99.90;;;;;;5081418;28;20996;-75
2022/09/24 11:58:33;;;;;;;31.37;28.00;;;13.50;99.90;;;;;;5069084;28;22768;-74
2022/09/24 12:01:25;;;;;;;29.93;26.87;;;13.60;99.90;;;;;;5069009;28;21374;-74
2022/09/24 12:04:17;;;;;;;29.57;26.43;;;13.60;99.90;;;;;;5075694;28;20453;-74
2022/09/24 12:07:12;;;;;;;29.33;26.33;;;13.50;99.90;;;;;;5072156;28;20480;-74
2022/09/24 12:10:07;;;;;;;30.97;27.77;;;13.60;99.90;;;;;;5071063;28;20467;-75
2022/09/24 12:15:29;;;;;;;31.97;28.67;;;13.60;99.90;;;;;;5009678;28;20533;-74
2022/09/24 12:18:23;;;;;;;30.70;27.50;;;13.60;99.90;;;;;;5031833;28;20471;-75
2022/09/24 12:21:16;;;;;;;30.27;27.17;;;13.70;99.90;;;;;;5035562;28;20483;-74
2022/09/24 12:24:12;;;;;;;28.77;25.77;;;13.70;99.90;;;;;;5043636;28;20466;-74
2022/09/24 12:27:06;;;;;;;29.50;26.37;;;13.70;99.90;;;;;;5055337;28;20510;-75
2022/09/24 12:33:15;;;;;;;27.50;24.70;;;13.70;99.90;;;;;;5056399;28;20447;-74
2022/09/24 12:36:08;;;;;;;27.60;24.77;;;13.80;99.90;;;;;;5055554;28;20863;-75
2022/09/24 12:39:02;;;;;;;30.90;26.37;;;13.80;99.90;;;;;;5050382;28;20835;-74
2022/09/24 12:41:56;;;;;;;28.23;25.23;;;13.80;99.90;;;;;;5046424;28;20454;-74
2022/09/24 12:44:48;;;;;;;30.43;27.40;;;13.80;99.90;;;;;;5048894;28;20476;-74
2022/09/24 12:47:46;;;;;;;29.53;26.40;;;13.80;99.90;;;;;;5053010;28;20474;-74
2022/09/24 12:50:39;;;;;;;29.97;26.90;;;13.80;99.90;;;;;;5052555;28;20473;-74
2022/09/24 12:53:33;;;;;;;28.47;25.37;;;13.80;99.90;;;;;;5051560;28;20478;-74
2022/09/24 12:56:25;;;;;;;29.03;25.70;;;13.80;99.90;;;;;;5051451;28;20551;-74
2022/09/24 12:59:25;;;;;;;28.60;25.60;;;13.80;99.90;;;;;;5056146;28;20458;-75
2022/09/24 13:02:16;;;;;;;28.03;25.13;;;13.80;99.90;;;;;;5051702;28;20461;-74
2022/09/24 13:05:18;;;;;;;29.27;26.17;;;13.80;99.90;;;;;;5056925;28;20832;-74
2022/09/24 13:08:24;;;;;;;29.27;26.27;;;13.80;99.90;;;;;;5038697;28;20545;-75
2022/09/24 13:11:32;;;;;;;27.97;25.17;;;13.80;99.90;;;;;;5035036;28;20506;-74
2022/09/24 13:14:26;;;;;;;29.30;26.27;;;13.80;99.90;;;;;;5032048;28;20482;-74
2022/09/24 13:17:16;;;;;;;28.17;25.27;;;13.80;99.90;;;;;;5037605;28;20479;-74
2022/09/24 13:20:07;;;;;;;28.97;25.90;;;13.80;99.90;;;;;;5036147;28;20458;-74
2022/09/24 13:22:57;;;;;;;29.37;26.30;;;13.90;99.90;;;;;;5039244;28;20538;-75
2022/09/24 13:25:56;;;;;;;29.07;25.70;;;13.90;99.90;;;;;;5033305;28;20477;-75
2022/09/24 13:28:54;;;;;;;28.50;25.53;;;13.90;99.90;;;;;;5044565;28;20462;-74
2022/09/24 13:31:47;;;;;;;27.87;24.87;;;13.90;99.90;;;;;;5038212;28;20462;-74
2022/09/24 13:34:36;;;;;;;27.77;25.00;;;13.90;99.90;;;;;;5039009;28;20490;-74
2022/09/24 13:37:33;;;;;;;29.57;26.47;;;13.90;99.90;;;;;;5025044;28;20494;-74
2022/09/24 13:40:24;;;;;;;28.53;25.50;;;13.90;99.90;;;;;;5036311;28;20452;-74
2022/09/24 13:43:17;;;;;;;28.50;25.60;;;14.00;99.90;;;;;;5034059;28;20493;-74
2022/09/24 13:46:10;;;;;;;29.47;26.40;;;14.00;99.90;;;;;;5042289;28;20489;-74
2022/09/24 13:49:05;;;;;;;28.90;25.87;;;14.10;99.90;;;;;;5036208;28;20554;-74
2022/09/24 13:52:05;;;;;;;28.50;25.60;;;14.10;99.90;;;;;;5041536;28;20450;-74
2022/09/24 13:54:59;;;;;;;29.27;26.07;;;14.10;99.90;;;;;;5035072;28;20466;-74
2022/09/24 13:57:48;;;;;;;29.83;26.63;;;14.10;99.90;;;;;;5043915;28;20470;-74
2022/09/24 14:00:42;;;;;;;29.40;26.20;;;14.10;99.90;;;;;;5038602;28;20460;-74
2022/09/24 14:03:33;;;;;;;30.60;27.40;;;14.10;99.90;;;;;;5042127;28;21041;-74
2022/09/24 14:06:34;;;;;;;31.20;28.03;;;14.10;99.90;;;;;;5051376;28;20470;-74
2022/09/24 14:09:27;;;;;;;29.87;26.87;;;14.10;99.90;;;;;;5063360;28;20457;-74
2022/09/24 14:12:20;;;;;;;31.00;27.70;;;14.20;99.90;;;;;;5055559;28;20442;-74
2022/09/24 14:15:16;;;;;;;31.40;28.30;;;14.20;99.90;;;;;;5045908;28;20569;-74
2022/09/24 14:18:06;;;;;;;28.87;25.87;;;14.10;99.90;;;;;;5048699;28;21767;-76
2022/09/24 14:21:06;;;;;;;29.20;26.20;;;14.10;99.90;;;;;;5050345;28;20489;-75
2022/09/24 14:23:59;;;;;;;28.80;25.90;;;14.10;99.90;;;;;;5046512;28;20481;-75
2022/09/24 14:26:51;;;;;;;29.77;26.97;;;14.10;99.90;;;;;;5027690;28;20494;-74
2022/09/24 14:29:46;;;;;;;30.00;26.77;;;14.10;99.90;;;;;;5031905;28;20971;-74
2022/09/24 14:32:38;;;;;;;29.27;26.40;;;14.10;99.90;;;;;;5031953;28;20904;-74
2022/09/24 14:35:32;;;;;;;30.67;27.37;;;14.20;99.90;;;;;;5031560;28;21101;-74
2022/09/24 14:38:24;;;;;;;28.50;25.47;;;14.20;99.90;;;;;;5038305;28;20477;-74
2022/09/24 14:41:18;;;;;;;29.53;26.63;;;14.20;99.90;;;;;;5022953;28;20533;-74
2022/09/24 14:44:13;;;;;;;28.63;25.90;;;14.20;99.90;;;;;;5024145;28;20483;-74
2022/09/24 14:47:02;;;;;;;27.63;24.93;;;14.20;99.90;;;;;;5044368;28;20482;-74
2022/09/24 14:49:50;;;;;;;27.53;24.73;;;14.20;99.90;;;;;;5045631;28;20450;-74
2022/09/24 14:52:40;;;;;;;29.10;26.30;;;14.30;99.90;;;;;;5046729;28;20463;-74
2022/09/24 14:55:39;;;;;;;28.00;25.20;;;14.20;99.90;;;;;;5045379;28;20538;-74
2022/09/24 14:58:36;;;;;;;28.30;25.50;;;14.20;99.90;;;;;;5040362;28;20984;-75
2022/09/24 15:01:30;;;;;;;26.67;23.87;;;14.30;99.90;;;;;;5033249;28;20997;-75
2022/09/24 15:04:23;;;;;;;29.23;26.43;;;14.30;99.90;;;;;;5043769;28;20469;-75
2022/09/24 15:07:16;;;;;;;28.00;25.30;;;14.30;99.90;;;;;;5039253;28;20580;-74
2022/09/24 15:10:06;;;;;;;29.23;26.23;;;14.30;99.90;;;;;;5046998;28;20450;-74
2022/09/24 15:12:55;;;;;;;28.47;25.57;;;14.30;99.90;;;;;;5056591;28;20446;-74
2022/09/24 15:15:44;;;;;;;28.37;25.50;;;14.30;99.90;;;;;;5044971;28;20475;-74
2022/09/24 15:18:34;;;;;;;28.90;26.00;;;14.30;99.90;;;;;;5038739;28;20490;-74
2022/09/24 15:21:22;;;;;;;27.63;24.87;;;14.30;99.90;;;;;;5041082;28;20456;-74
2022/09/24 15:24:10;;;;;;;28.77;25.83;;;14.30;99.90;;;;;;5037328;28;21003;-74
2022/09/24 15:27:02;;;;;;;30.53;27.43;;;14.30;99.90;;;;;;5036610;28;20612;-74
2022/09/24 15:29:52;;;;;;;28.60;25.73;;;14.30;99.90;;;;;;5038390;28;20512;-74
2022/09/24 15:32:40;;;;;;;29.57;26.47;;;14.30;99.90;;;;;;5038170;28;20467;-74
2022/09/24 15:35:28;;;;;;;26.97;24.43;;;14.30;99.90;;;;;;5037128;28;20459;-75
2022/09/24 15:38:19;;;;;;;28.70;25.90;;;14.30;99.90;;;;;;5036473;28;20500;-74
2022/09/24 15:41:08;;;;;;;28.50;25.60;;;14.30;99.90;;;;;;5038809;28;20474;-74
2022/09/24 15:43:59;;;;;;;28.43;25.60;;;14.30;99.90;;;;;;5042525;28;20475;-74
2022/09/24 15:46:49;;;;;;;30.30;26.97;;;14.30;99.90;;;;;;5056518;28;20995;-74
2022/09/24 15:49:37;;;;;;;28.87;26.07;;;14.30;99.90;;;;;;5060117;28;20950;-74
2022/09/24 15:52:28;;;;;;;28.80;26.00;;;14.30;99.90;;;;;;5063717;28;20457;-74
2022/09/24 15:55:18;;;;;;;27.90;25.10;;;14.30;99.90;;;;;;5055646;28;20480;-74
2022/09/24 15:58:13;;;;;;;30.10;27.00;;;14.30;99.90;;;;;;5062322;28;20457;-74
2022/09/24 16:01:10;;;;;;;29.30;26.13;;;14.30;99.90;;;;;;5061731;28;20457;-74
2022/09/24 16:03:58;;;;;;;30.07;27.00;;;14.30;99.90;;;;;;5060716;28;20481;-74